Latest Weather Observations for Kadina

IDS60801

Issued at 1:05 pm CDT Saturday 29 November 2014 (issued every 30 minutes, with the page automatically refreshed every 10 minutes)

About weather observations | Map of weather stations | Latest weather observations for SA | Other Formats
Station Details ID: 022050 Name: KADINA AWS Lat: -33.97 Lon: 137.66 Height: 41.14 m
Data from the previous 72 hours. | See also: Recent months at Kadina
Date/Time
CDT
Temp
°C
App
Temp
°C
Dew
Point
Rel
Hum
%
Delta-T
°C
Wind Press
QNH
hPa
Press
MSL
hPa
Rain
since 9 am
mm
Dir
 
Spd
km/h
Gust
km/h
Spd
kts
Gust
kts
29/01:00pm 34.6 28.8 -0.1 11 17.1 NNW 20 28 11 15 1009.2 - 0.0
29/12:30pm 33.1 26.5 -0.1 12 16.2 NNW 24 33 13 18 1009.6 - 0.0
29/12:00pm 32.9 26.3 -0.2 12 16.1 NNW 24 32 13 17 1009.7 1009.5 0.0
29/11:30am 32.5 25.7 -1.7 11 16.2 N 24 30 13 16 1010.0 - 0.0
29/11:00am 32.3 25.9 -1.9 11 16.1 N 22 30 12 16 1010.3 - 0.0
29/10:30am 31.1 24.0 -1.6 12 15.3 N 26 33 14 18 1010.5 - 0.0
29/10:00am 30.8 24.9 -1.9 12 15.2 N 19 28 10 15 1010.9 - 0.0
29/09:30am 29.7 23.9 -1.6 13 14.5 N 19 26 10 14 1011.1 - 0.0
29/09:00am 27.2 22.2 1.6 19 12.4 NNE 17 24 9 13 1011.3 1011.1 0.0
29/08:30am 25.0 21.0 3.0 24 10.7 ENE 13 19 7 10 1011.3 - 0.0
29/08:00am 21.6 18.3 6.3 37 7.7 ESE 13 17 7 9 1011.5 - 0.0
29/07:30am 18.1 15.3 6.9 48 5.6 ESE 11 13 6 7 1011.7 - 0.0
29/07:00am 17.1 13.9 6.9 51 5.1 ESE 13 17 7 9 1011.5 - 0.0
29/06:30am 12.9 9.9 7.8 71 2.5 E 13 15 7 8 1011.5 - 0.0
29/06:00am 12.9 9.2 8.0 72 2.4 ESE 17 19 9 10 1011.3 1011.1 0.0
29/05:30am 13.4 9.4 8.9 74 2.3 ESE 20 22 11 12 1011.0 - 0.0
29/05:00am 13.5 9.8 10.3 81 1.7 ESE 20 20 11 11 1011.0 - 0.0
29/04:30am 13.5 10.2 10.9 84 1.4 ESE 19 20 10 11 1011.1 - 0.0
29/04:00am 13.2 10.5 10.4 83 1.5 E 15 17 8 9 1011.5 - 0.0
29/03:30am 14.3 11.0 10.9 80 1.8 ESE 19 20 10 11 1011.6 - 0.0
29/03:00am 14.8 12.0 11.4 80 1.8 ESE 17 19 9 10 1011.9 1011.7 0.0
29/02:30am 14.6 11.6 10.8 78 2.0 ESE 17 17 9 9 1012.2 - 0.0
29/02:00am 14.6 11.5 10.4 76 2.2 ESE 17 19 9 10 1012.4 - 0.0
29/01:30am 14.8 11.6 10.0 73 2.5 ESE 17 19 9 10 1012.7 - 0.0
29/01:00am 15.6 11.9 9.5 67 3.2 ESE 19 20 10 11 1013.1 - 0.0
29/12:30am 15.9 12.0 9.3 65 3.4 ESE 20 22 11 12 1013.5 - 0.0
29/12:00am 15.9 12.1 8.9 63 3.6 ESE 19 20 10 11 1013.9 1013.7 0.0
 
Date/Time
CDT
Temp
°C
App
Temp
°C
Dew
Point
Rel
Hum
%
Delta-T
°C
Wind Press
QNH
hPa
Press
MSL
hPa
Rain
since 9 am
mm
Dir
 
Spd
km/h
Gust
km/h
Spd
kts
Gust
kts
28/11:30pm 16.6 12.6 8.1 57 4.3 ESE 19 22 10 12 1014.3 - 0.0
28/11:00pm 17.5 13.6 8.6 56 4.6 ESE 19 20 10 11 1014.7 - 0.0
28/10:30pm 18.0 13.8 7.4 50 5.4 ESE 19 22 10 12 1014.8 - 0.0
28/10:00pm 18.2 13.1 4.0 39 6.7 ESE 20 24 11 13 1014.9 - 0.0
28/09:30pm 18.9 13.9 3.5 36 7.2 ESE 19 22 10 12 1014.8 - 0.0
28/09:00pm 19.6 14.8 2.5 32 7.9 ESE 17 20 9 11 1014.6 1014.4 0.0
28/08:30pm 22.4 17.8 3.5 29 9.1 SE 17 20 9 11 1014.5 - 0.0
28/08:00pm 25.0 20.0 3.6 25 10.5 SE 19 24 10 13 1014.5 - 0.0
28/07:30pm 27.4 22.0 4.5 23 11.6 SE 22 28 12 15 1014.3 - 0.0
28/07:00pm 29.0 24.0 4.5 21 12.6 SE 20 26 11 14 1014.2 - 0.0
28/06:30pm 30.5 24.4 2.7 17 14.0 S 24 28 13 15 1014.2 - 0.0
28/06:00pm 30.1 25.2 4.0 19 13.4 SW 19 30 10 16 1014.1 1013.9 0.0
28/05:30pm 30.7 26.0 5.9 21 13.2 SW 20 30 11 16 1014.2 - 0.0
28/05:00pm 30.5 25.3 3.5 18 13.8 WSW 20 26 11 14 1014.5 - 0.0
28/04:30pm 30.3 25.7 5.6 21 13.0 WSW 19 26 10 14 1014.7 - 0.0
28/04:00pm 28.9 23.5 6.3 24 12.0 WSW 24 30 13 16 1014.9 - 0.0
28/03:30pm 28.5 23.3 5.4 23 12.0 WSW 22 28 12 15 1015.1 - 0.0
28/03:00pm 30.1 25.5 5.4 21 13.0 WSW 19 24 10 13 1015.3 1015.1 0.0
28/02:30pm 31.5 27.1 6.5 21 13.5 W 19 26 10 14 1015.5 - 0.0
28/02:00pm 31.2 27.5 6.3 21 13.3 SW 15 22 8 12 1015.8 - 0.0
28/01:30pm 29.7 25.8 7.0 24 12.2 W 17 26 9 14 1016.2 - 0.0
28/01:00pm 30.1 26.1 6.7 23 12.6 W 17 26 9 14 1016.7 - 0.0
28/12:30pm 29.7 26.1 5.1 21 12.8 W 13 24 7 13 1017.1 - 0.0
28/12:00pm 29.9 27.3 3.0 18 13.5 N 6 13 3 7 1017.4 1017.3 0.0
28/11:30am 30.2 27.6 3.3 18 13.6 NNE 6 15 3 8 1017.8 - 0.0
28/11:00am 28.3 24.6 2.5 19 12.7 ENE 11 17 6 9 1018.1 - 0.0
28/10:30am 27.6 23.3 3.3 21 12.1 E 15 24 8 13 1018.4 - 0.0
28/10:00am 26.7 22.1 3.9 23 11.4 E 17 24 9 13 1018.7 - 0.0
28/09:30am 24.8 19.8 4.5 27 10.1 E 20 26 11 14 1019.0 - 0.0
28/09:00am 23.3 18.8 8.6 39 7.8 E 22 28 12 15 1019.2 1019.1 0.0
28/08:30am 21.4 16.8 10.9 51 5.8 ESE 26 32 14 17 1019.2 - 0.0
28/08:00am 19.9 16.0 12.2 61 4.3 ESE 24 33 13 18 1019.2 - 0.0
28/07:30am 17.6 14.4 13.1 75 2.5 ESE 22 30 12 16 1018.9 - 0.0
28/07:00am 16.0 12.7 12.9 82 1.7 ESE 22 30 12 16 1018.8 - 0.0
28/06:30am 14.6 11.8 12.5 87 1.1 ESE 19 24 10 13 1018.8 - 0.0
28/06:00am 13.9 11.4 12.3 90 0.9 SE 17 24 9 13 1018.7 1018.6 0.0
28/05:30am 13.3 11.7 11.5 89 1.0 SE 11 15 6 8 1018.6 - 0.0
28/05:00am 14.2 12.3 11.9 86 1.2 SE 13 20 7 11 1018.3 - 0.0
28/04:30am 14.4 10.9 12.1 86 1.2 ESE 22 28 12 15 1017.8 - 0.0
28/04:00am 14.7 10.8 12.2 85 1.4 ESE 24 30 13 16 1017.8 - 0.0
28/03:30am 14.9 11.1 12.4 85 1.4 ESE 24 30 13 16 1017.7 - 0.0
28/03:00am 14.7 10.8 12.0 84 1.5 ESE 24 28 13 15 1017.7 1017.6 0.0
28/02:30am 14.9 11.3 12.0 83 1.6 ESE 22 28 12 15 1017.8 - 0.0
28/02:00am 15.0 11.4 11.8 81 1.7 ESE 22 30 12 16 1018.1 - 0.0
28/01:30am 15.4 11.4 11.8 79 2.0 ESE 24 32 13 17 1018.4 - 0.0
28/01:00am 15.5 11.5 11.7 78 2.1 ESE 24 30 13 16 1018.8 - 0.0
28/12:30am 15.9 12.0 12.1 78 2.1 ESE 24 32 13 17 1019.1 - 0.0
28/12:00am 16.0 12.4 11.8 76 2.3 ESE 22 30 12 16 1019.4 1019.3 0.0
 
Date/Time
CDT
Temp
°C
App
Temp
°C
Dew
Point
Rel
Hum
%
Delta-T
°C
Wind Press
QNH
hPa
Press
MSL
hPa
Rain
since 9 am
mm
Dir
 
Spd
km/h
Gust
km/h
Spd
kts
Gust
kts
27/11:30pm 16.2 12.1 11.6 74 2.5 ESE 24 32 13 17 1019.6 - 0.0
27/11:00pm 16.7 12.5 11.2 70 3.0 ESE 24 32 13 17 1019.7 - 0.0
27/10:30pm 16.7 12.3 10.5 67 3.3 SE 24 33 13 18 1019.8 - 0.0
27/10:00pm 17.5 12.0 10.6 64 3.7 SE 30 43 16 23 1019.8 - 0.0
27/09:30pm 17.9 12.3 10.3 61 4.1 SE 30 43 16 23 1019.7 - 0.0
27/09:00pm 18.4 13.1 9.7 57 4.6 SE 28 39 15 21 1019.7 1019.6 0.0
27/08:30pm 19.6 14.9 9.2 51 5.5 SSE 24 33 13 18 1019.9 - 0.0
27/08:00pm 21.2 16.2 9.4 47 6.3 SSE 26 35 14 19 1019.8 - 0.0
27/07:30pm 23.3 18.7 9.7 42 7.4 SE 24 35 13 19 1019.7 - 0.0
27/07:00pm 25.2 19.0 7.8 33 9.3 SE 30 37 16 20 1019.4 - 0.0
27/06:30pm 26.8 21.1 6.8 28 10.5 SSE 26 33 14 18 1019.0 - 0.0
27/06:00pm 27.8 21.9 6.0 25 11.4 SSE 26 35 14 19 1018.8 1018.7 0.0
27/05:30pm 28.7 23.8 6.7 25 11.7 SSE 22 30 12 16 1018.8 - 0.0
27/05:00pm 28.5 24.6 7.1 26 11.5 SSE 17 32 9 17 1019.1 - 0.0
27/04:30pm 28.7 25.0 7.9 27 11.3 ESE 17 30 9 16 1019.2 - 0.0
27/04:00pm 29.0 24.0 8.1 27 11.4 ESE 24 33 13 18 1019.3 - 0.0
27/03:30pm 29.5 25.8 8.0 26 11.7 SE 17 28 9 15 1019.4 - 0.0
27/03:00pm 29.1 25.2 7.1 25 11.8 SE 17 26 9 14 1019.6 1019.5 0.0
27/02:30pm 28.8 24.6 7.4 26 11.5 SE 19 28 10 15 1019.8 - 0.0
27/02:00pm 28.5 23.8 7.7 27 11.2 SE 22 37 12 20 1020.1 - 0.0
27/01:30pm 28.1 23.9 7.4 27 11.1 ESE 19 28 10 15 1020.5 - 0.0
27/01:00pm 27.4 24.2 8.3 30 10.4 ESE 15 26 8 14 1020.9 - 0.0
27/12:30pm 26.8 24.3 8.3 31 10.0 ESE 11 24 6 13 1021.2 - 0.0
27/12:00pm 26.7 23.5 8.6 32 9.8 E 15 26 8 14 1021.4 1021.3 0.0
27/11:30am 26.7 22.9 9.1 33 9.7 ESE 19 32 10 17 1021.7 - 0.0
27/11:00am 25.5 21.8 10.1 38 8.5 ESE 20 30 11 16 1021.8 - 0.0
27/10:30am 24.0 19.8 9.9 41 7.7 E 22 28 12 15 1022.3 - 0.0
27/10:00am 23.2 18.9 10.6 45 7.0 E 24 30 13 16 1022.4 - 0.0
27/09:30am 21.6 17.4 11.0 51 5.9 E 24 30 13 16 1022.7 - 0.0
27/09:00am 20.2 15.2 10.9 55 5.1 E 28 35 15 19 1022.8 1022.7 0.0
27/08:30am 19.1 14.2 11.4 61 4.2 ESE 28 35 15 19 1022.7 - 0.0
27/08:00am 17.7 12.5 11.7 68 3.3 ESE 30 37 16 20 1022.6 - 0.0
27/07:30am 16.1 11.3 11.7 75 2.4 ESE 28 37 15 20 1022.5 - 0.0
27/07:00am 14.7 10.6 11.5 81 1.7 ESE 24 32 13 17 1022.5 - 0.0
27/06:30am 13.2 9.4 11.1 87 1.1 ESE 22 26 12 14 1022.5 - 0.0
27/06:00am 12.9 9.4 11.0 88 1.0 ESE 20 24 11 13 1022.3 1022.2 0.0
27/05:30am 13.2 9.8 11.1 87 1.1 ESE 20 26 11 14 1022.0 - 0.0
27/05:00am 13.2 9.7 10.9 86 1.2 ESE 20 26 11 14 1021.5 - 0.0
27/04:30am 13.4 9.9 10.9 85 1.3 ESE 20 26 11 14 1021.5 - 0.0
27/04:00am 13.5 10.2 10.9 84 1.4 E 19 26 10 14 1021.4 - 0.0
27/03:30am 13.1 9.5 10.6 85 1.3 ESE 20 24 11 13 1021.2 - 0.0
27/03:00am 13.4 10.0 11.3 87 1.1 ESE 20 24 11 13 1021.3 1021.2 0.0
27/02:30am 13.5 10.1 11.2 86 1.2 ESE 20 24 11 13 1021.4 - 0.0
27/02:00am 13.8 10.4 11.3 85 1.3 ESE 20 24 11 13 1021.6 - 0.0
27/01:30am 14.1 10.7 11.4 84 1.4 ESE 20 24 11 13 1021.9 - 0.0
27/01:00am 14.5 10.8 11.5 82 1.6 ESE 22 28 12 15 1022.2 - 0.0
27/12:30am 15.2 11.2 11.8 80 1.8 ESE 24 33 13 18 1022.3 - 0.0
27/12:00am 15.5 11.1 11.7 78 2.0 SE 26 32 14 17 1022.4 1022.3 0.0
 
Date/Time
CDT
Temp
°C
App
Temp
°C
Dew
Point
Rel
Hum
%
Delta-T
°C
Wind Press
QNH
hPa
Press
MSL
hPa
Rain
since 9 am
mm
Dir
 
Spd
km/h
Gust
km/h
Spd
kts
Gust
kts
26/11:30pm 15.8 11.0 11.8 77 2.2 SE 28 37 15 20 1022.4 - 0.0
26/11:00pm 16.0 11.2 11.6 75 2.4 SE 28 35 15 19 1022.4 - 0.0
26/10:30pm 16.1 12.0 11.5 74 2.5 SE 24 37 13 20 1022.3 - 0.0
26/10:00pm 16.1 11.6 11.3 73 2.6 SSE 26 33 14 18 1022.1 - 0.0
26/09:30pm 16.0 11.8 11.0 72 2.7 SSE 24 33 13 18 1021.8 - 0.0
26/09:00pm 16.3 11.6 10.6 69 3.0 SSE 26 33 14 18 1021.7 1021.6 0.0
26/08:30pm 16.9 12.6 10.7 67 3.3 SSE 24 33 13 18 1021.6 - 0.0
26/08:00pm 18.1 13.3 10.2 60 4.2 SSE 26 39 14 21 1021.4 - 0.0
26/07:30pm 19.6 14.0 10.0 54 5.1 SSE 30 41 16 22 1021.1 - 0.0
26/07:00pm 21.0 15.6 8.0 43 6.8 SSE 26 35 14 19 1021.0 - 0.0
26/06:30pm 22.1 15.9 4.2 31 8.7 SE 26 32 14 17 1020.8 - 0.0
26/06:00pm 22.6 16.8 4.6 31 8.9 SE 24 32 13 17 1020.5 1020.4 0.0
26/05:30pm 23.3 17.4 3.8 28 9.5 SE 24 35 13 19 1020.4 - 0.0
26/05:00pm 23.9 19.0 2.1 24 10.4 SE 17 24 9 13 1020.5 - 0.0
26/04:30pm 24.0 19.3 3.3 26 10.1 SSE 17 28 9 15 1020.8 - 0.0
26/04:00pm 24.6 19.9 3.3 25 10.4 SSE 17 37 9 20 1020.9 - 0.0
26/03:30pm 24.6 19.8 4.9 28 9.9 SE 19 32 10 17 1021.0 - 0.0
26/03:00pm 23.8 19.6 5.7 31 9.2 S 17 32 9 17 1021.3 1021.2 0.0
26/02:30pm 23.6 19.1 6.0 32 9.0 SSE 19 33 10 18 1021.4 - 0.0
26/02:00pm 24.2 20.2 6.5 32 9.1 SE 17 26 9 14 1021.7 - 0.0
26/01:30pm 23.8 19.4 6.6 33 8.9 SE 19 30 10 16 1022.0 - 0.0

Other Formats:

Comma delimited format used in spreadsheet applications
http://www.bom.gov.au/fwo/IDS60801/IDS60801.94685.axf

JavaScript Object Notation format (JSON) in row-major order
http://www.bom.gov.au/fwo/IDS60801/IDS60801.94685.json